Time;durP1;ratioP1;P1;durP2;ratioP2;P2;SDS_P1;SDS_P2;PMS_P1;PMS_P2;Temp;Humidity;BMP_temperature;BMP_pressure;BME280_temperature;BME280_humidity;BME280_pressure;Samples;Min_cycle;Max_cycle;Signal;HPM_P1;HPM_P2
2023/08/25 00:02:19;;;;;;;22.45;16.25;;;;;;;;;;7368469;19;20011;-72
2023/08/25 00:04:46;;;;;;;19.10;15.05;;;;;;;;;;7375327;19;20048;-72
2023/08/25 00:07:11;;;;;;;21.70;15.45;;;;;;;;;;7389879;19;20007;-72
2023/08/25 00:09:36;;;;;;;23.45;16.05;;;;;;;;;;7367852;19;20006;-72
2023/08/25 00:12:03;;;;;;;21.80;15.55;;;;;;;;;;7368947;19;20007;-72
2023/08/25 00:14:28;;;;;;;20.40;16.13;;;;;;;;;;7366543;19;20010;-71
2023/08/25 00:16:54;;;;;;;20.63;17.40;;;;;;;;;;7367496;19;20007;-72
2023/08/25 00:19:20;;;;;;;22.95;16.77;;;;;;;;;;7389371;19;19999;-70
2023/08/25 00:21:45;;;;;;;22.98;16.73;;;;;;;;;;7367921;19;20018;-71
2023/08/25 00:24:11;;;;;;;22.27;17.15;;;;;;;;;;7365172;19;20013;-72
2023/08/25 00:26:37;;;;;;;19.48;15.57;;;;;;;;;;7368767;19;20006;-70
2023/08/25 00:29:03;;;;;;;21.02;16.50;;;;;;;;;;7368630;19;20006;-74
2023/08/25 00:31:28;;;;;;;22.75;16.33;;;;;;;;;;7389750;19;20018;-71
2023/08/25 00:33:54;;;;;;;20.30;15.77;;;;;;;;;;7366243;19;20014;-72
2023/08/25 00:36:19;;;;;;;25.20;16.15;;;;;;;;;;7366759;19;20389;-72
2023/08/25 00:38:45;;;;;;;21.77;15.40;;;;;;;;;;7366948;19;20425;-76
2023/08/25 00:41:10;;;;;;;21.48;15.90;;;;;;;;;;7366972;19;20021;-72
2023/08/25 00:43:38;;;;;;;26.10;17.10;;;;;;;;;;7389114;19;20006;-72
2023/08/25 00:46:03;;;;;;;25.52;17.70;;;;;;;;;;7363836;19;20018;-71
2023/08/25 00:48:29;;;;;;;25.17;18.00;;;;;;;;;;7366942;19;20494;-75
2023/08/25 00:50:55;;;;;;;25.13;17.13;;;;;;;;;;7367052;19;20022;-72
2023/08/25 00:53:22;;;;;;;26.63;18.02;;;;;;;;;;7373586;19;20067;-72
2023/08/25 00:55:48;;;;;;;25.55;20.20;;;;;;;;;;7373187;19;20018;-73
2023/08/25 00:58:14;;;;;;;24.58;19.42;;;;;;;;;;7395734;19;20027;-72
2023/08/25 01:00:42;;;;;;;23.52;18.45;;;;;;;;;;7373864;19;20006;-72
2023/08/25 01:03:07;;;;;;;24.95;19.48;;;;;;;;;;7372695;19;20011;-71
2023/08/25 01:05:33;;;;;;;25.77;19.63;;;;;;;;;;7371291;19;20014;-71
2023/08/25 01:07:58;;;;;;;25.98;19.50;;;;;;;;;;7374098;19;20031;-72
2023/08/25 01:10:50;;;;;;;24.88;18.73;;;;;;;;;;7395330;19;20002;-71
2023/08/25 01:13:23;;;;;;;26.75;18.05;;;;;;;;;;7372979;19;20003;-72
2023/08/25 01:15:52;;;;;;;21.42;16.70;;;;;;;;;;7372857;19;20009;-71
2023/08/25 01:18:33;;;;;;;25.60;17.80;;;;;;;;;;7372703;19;20038;-71
2023/08/25 01:20:59;;;;;;;22.25;17.42;;;;;;;;;;7373955;19;20014;-72
2023/08/25 01:23:32;;;;;;;21.63;16.23;;;;;;;;;;7377083;19;20026;-72
2023/08/25 01:25:58;;;;;;;21.25;17.55;;;;;;;;;;7373434;19;20007;-72
2023/08/25 01:28:25;;;;;;;24.13;18.13;;;;;;;;;;7399184;19;20010;-71
2023/08/25 01:30:54;;;;;;;23.95;17.08;;;;;;;;;;7375597;19;20006;-72
2023/08/25 01:33:20;;;;;;;24.77;17.63;;;;;;;;;;7373844;19;20041;-73
2023/08/25 01:35:51;;;;;;;25.75;17.77;;;;;;;;;;7372820;19;20427;-72
2023/08/25 01:38:19;;;;;;;22.38;17.85;;;;;;;;;;7372987;19;20027;-72
2023/08/25 01:40:51;;;;;;;21.13;17.58;;;;;;;;;;7387068;19;20503;-72
2023/08/25 01:43:21;;;;;;;23.70;18.23;;;;;;;;;;7394223;19;20497;-71
2023/08/25 01:45:48;;;;;;;26.20;19.50;;;;;;;;;;7369995;19;20382;-71
2023/08/25 01:48:15;;;;;;;23.13;18.80;;;;;;;;;;7373341;19;20015;-71
2023/08/25 01:50:41;;;;;;;24.77;19.23;;;;;;;;;;7372183;19;20349;-71
2023/08/25 01:53:08;;;;;;;24.13;18.35;;;;;;;;;;7372428;19;20023;-72
2023/08/25 01:55:34;;;;;;;26.42;20.67;;;;;;;;;;7390385;19;20007;-72
2023/08/25 01:57:59;;;;;;;27.50;20.70;;;;;;;;;;7372574;19;20081;-73
2023/08/25 02:00:25;;;;;;;29.83;21.92;;;;;;;;;;7372293;19;20003;-72
2023/08/25 02:02:50;;;;;;;31.92;22.73;;;;;;;;;;7371556;19;20011;-70
2023/08/25 02:05:15;;;;;;;33.67;23.50;;;;;;;;;;7368836;19;20073;-71
2023/08/25 02:07:41;;;;;;;31.55;22.90;;;;;;;;;;7394361;19;20324;-71
2023/08/25 02:10:06;;;;;;;34.60;23.55;;;;;;;;;;7371478;19;20006;-71
2023/08/25 02:12:33;;;;;;;30.92;22.70;;;;;;;;;;7371068;19;20003;-71
2023/08/25 02:14:59;;;;;;;30.08;21.30;;;;;;;;;;7370010;19;20374;-72
2023/08/25 02:17:24;;;;;;;31.90;21.20;;;;;;;;;;7371899;19;20003;-72
2023/08/25 02:19:49;;;;;;;29.38;22.02;;;;;;;;;;7371502;19;20003;-71
2023/08/25 02:22:15;;;;;;;27.83;21.63;;;;;;;;;;7392882;19;20092;-71
2023/08/25 02:24:40;;;;;;;29.55;20.80;;;;;;;;;;7368293;19;20006;-71
2023/08/25 02:27:05;;;;;;;29.05;20.17;;;;;;;;;;7370472;19;20010;-71
2023/08/25 02:29:31;;;;;;;29.58;21.38;;;;;;;;;;7371046;19;20033;-71
2023/08/25 02:31:56;;;;;;;34.42;25.45;;;;;;;;;;7371604;19;20353;-71
2023/08/25 02:34:22;;;;;;;37.08;27.23;;;;;;;;;;7390611;19;20005;-71
2023/08/25 02:36:48;;;;;;;31.80;24.73;;;;;;;;;;7370212;19;20009;-71
2023/08/25 02:39:13;;;;;;;34.47;24.38;;;;;;;;;;7370649;19;20010;-71
2023/08/25 02:41:38;;;;;;;32.65;24.65;;;;;;;;;;7370685;19;20011;-71
2023/08/25 02:44:04;;;;;;;35.17;26.15;;;;;;;;;;7370058;19;20020;-71
2023/08/25 02:46:29;;;;;;;29.58;24.02;;;;;;;;;;7391299;19;20005;-72
2023/08/25 02:48:54;;;;;;;39.50;27.25;;;;;;;;;;7369922;19;20009;-72
2023/08/25 02:51:20;;;;;;;34.40;26.42;;;;;;;;;;7375023;19;20294;-72
2023/08/25 02:53:45;;;;;;;33.15;24.17;;;;;;;;;;7372533;19;20054;-72
2023/08/25 02:56:10;;;;;;;29.15;23.25;;;;;;;;;;7368491;19;20031;-72
2023/08/25 02:58:35;;;;;;;28.10;22.45;;;;;;;;;;7392323;19;19994;-71
2023/08/25 03:01:01;;;;;;;25.23;18.42;;;;;;;;;;7368380;19;20002;-71
2023/08/25 03:03:28;;;;;;;21.10;14.88;;;;;;;;;;7369584;19;20464;-73
2023/08/25 03:05:57;;;;;;;19.83;15.23;;;;;;;;;;7368018;19;20014;-71
2023/08/25 03:08:23;;;;;;;19.92;14.90;;;;;;;;;;7370060;19;20036;-72
2023/08/25 03:10:49;;;;;;;22.17;16.90;;;;;;;;;;7370191;19;20372;-71
2023/08/25 03:13:14;;;;;;;23.48;16.90;;;;;;;;;;7390456;19;20018;-71
2023/08/25 03:15:39;;;;;;;22.63;16.92;;;;;;;;;;7366607;19;20023;-70
2023/08/25 03:18:05;;;;;;;22.98;15.20;;;;;;;;;;7369179;19;20487;-71
2023/08/25 03:20:30;;;;;;;17.38;13.23;;;;;;;;;;7369715;19;20090;-71
2023/08/25 03:22:57;;;;;;;18.98;13.45;;;;;;;;;;7368555;19;20029;-70
2023/08/25 03:25:22;;;;;;;18.27;13.70;;;;;;;;;;7388106;19;20003;-72
2023/08/25 03:27:48;;;;;;;19.50;12.88;;;;;;;;;;7369009;19;20014;-71
2023/08/25 03:30:13;;;;;;;19.17;13.40;;;;;;;;;;7369968;19;20015;-71
2023/08/25 03:32:38;;;;;;;18.23;14.38;;;;;;;;;;7369988;19;19998;-74
2023/08/25 03:35:04;;;;;;;19.90;14.50;;;;;;;;;;7367808;19;20015;-72
2023/08/25 03:37:29;;;;;;;20.58;14.75;;;;;;;;;;7391236;19;20007;-72
2023/08/25 03:39:55;;;;;;;19.30;14.30;;;;;;;;;;7367791;19;20006;-71
2023/08/25 03:42:20;;;;;;;22.13;14.77;;;;;;;;;;7370351;19;20010;-71
2023/08/25 03:44:47;;;;;;;19.55;15.00;;;;;;;;;;7379630;19;20515;-71
2023/08/25 03:47:12;;;;;;;21.90;16.30;;;;;;;;;;7395084;19;20015;-70
2023/08/25 03:49:38;;;;;;;20.42;15.18;;;;;;;;;;7415703;19;20035;-71
2023/08/25 03:52:03;;;;;;;19.08;14.20;;;;;;;;;;7371090;19;20021;-72
2023/08/25 03:54:31;;;;;;;20.15;13.55;;;;;;;;;;7365766;19;20018;-71
2023/08/25 03:56:56;;;;;;;20.73;14.27;;;;;;;;;;7368291;19;20018;-72
2023/08/25 03:59:22;;;;;;;22.85;14.43;;;;;;;;;;7368222;19;20013;-71
2023/08/25 04:01:47;;;;;;;20.77;13.80;;;;;;;;;;7367030;19;20531;-71
2023/08/25 04:04:12;;;;;;;21.35;14.27;;;;;;;;;;7386825;19;20003;-71
2023/08/25 04:06:38;;;;;;;20.50;14.32;;;;;;;;;;7367464;19;20010;-71
2023/08/25 04:09:03;;;;;;;21.10;14.68;;;;;;;;;;7368118;19;20006;-71
2023/08/25 04:11:29;;;;;;;18.23;13.88;;;;;;;;;;7367284;19;20017;-72
2023/08/25 04:13:54;;;;;;;20.88;15.90;;;;;;;;;;7366533;19;20025;-71
2023/08/25 04:16:19;;;;;;;19.70;15.27;;;;;;;;;;7388419;19;20003;-72
2023/08/25 04:18:45;;;;;;;19.38;14.98;;;;;;;;;;7370559;19;20011;-71
2023/08/25 04:21:10;;;;;;;23.58;15.02;;;;;;;;;;7372311;19;20440;-71
2023/08/25 04:23:36;;;;;;;23.58;16.42;;;;;;;;;;7367763;19;20082;-71
2023/08/25 04:26:01;;;;;;;18.20;13.90;;;;;;;;;;7366127;19;20070;-71
2023/08/25 04:28:27;;;;;;;22.48;16.50;;;;;;;;;;7397059;19;20017;-72
2023/08/25 04:30:55;;;;;;;27.98;17.35;;;;;;;;;;7374933;19;20011;-71
2023/08/25 04:33:21;;;;;;;25.73;17.75;;;;;;;;;;7374744;19;20150;-72
2023/08/25 04:35:46;;;;;;;27.33;17.98;;;;;;;;;;7374326;19;20925;-72
2023/08/25 04:38:11;;;;;;;25.17;17.25;;;;;;;;;;7374722;19;20014;-70
2023/08/25 04:40:39;;;;;;;25.67;16.00;;;;;;;;;;7396864;19;20007;-71
2023/08/25 04:43:05;;;;;;;24.00;16.58;;;;;;;;;;7374289;19;20045;-71
2023/08/25 04:45:31;;;;;;;24.02;15.13;;;;;;;;;;7370018;19;20011;-71
2023/08/25 04:47:56;;;;;;;28.63;17.38;;;;;;;;;;7371581;19;20940;-71
2023/08/25 04:50:21;;;;;;;27.60;18.27;;;;;;;;;;7371752;19;20014;-71
2023/08/25 04:52:46;;;;;;;29.70;18.98;;;;;;;;;;7370830;19;20023;-72
2023/08/25 04:55:12;;;;;;;20.85;13.10;;;;;;;;;;7390060;19;20792;-72
2023/08/25 04:57:39;;;;;;;23.05;15.32;;;;;;;;;;7372665;19;20003;-71
2023/08/25 05:00:05;;;;;;;26.08;15.75;;;;;;;;;;7370964;19;20441;-72
2023/08/25 05:02:31;;;;;;;24.85;15.52;;;;;;;;;;7372953;19;20021;-71
2023/08/25 05:04:57;;;;;;;23.40;16.23;;;;;;;;;;7371411;19;20428;-72
2023/08/25 05:07:22;;;;;;;24.58;16.02;;;;;;;;;;7396306;19;20002;-72
2023/08/25 05:09:47;;;;;;;23.35;16.13;;;;;;;;;;7373115;19;20134;-72
2023/08/25 05:12:13;;;;;;;24.58;15.23;;;;;;;;;;7372516;19;20014;-72
2023/08/25 05:14:38;;;;;;;23.40;16.05;;;;;;;;;;7371833;19;20089;-73
2023/08/25 05:17:05;;;;;;;24.77;15.13;;;;;;;;;;7373509;19;20018;-72
2023/08/25 05:19:30;;;;;;;22.90;15.90;;;;;;;;;;7395234;19;20010;-72
2023/08/25 05:21:55;;;;;;;22.60;15.65;;;;;;;;;;7372299;19;20107;-71
2023/08/25 05:24:23;;;;;;;24.08;14.57;;;;;;;;;;7370604;19;20021;-72
2023/08/25 05:26:52;;;;;;;22.55;14.70;;;;;;;;;;7372197;19;20069;-71
2023/08/25 05:29:28;;;;;;;22.48;15.57;;;;;;;;;;7370848;19;20038;-70
2023/08/25 05:31:54;;;;;;;22.55;15.18;;;;;;;;;;7369828;19;20490;-72
2023/08/25 05:34:20;;;;;;;20.17;14.75;;;;;;;;;;7389987;19;20007;-71
2023/08/25 05:36:45;;;;;;;22.23;16.27;;;;;;;;;;7368652;19;20366;-71
2023/08/25 05:39:14;;;;;;;26.42;15.63;;;;;;;;;;7368181;19;20042;-72
2023/08/25 05:41:39;;;;;;;22.02;15.20;;;;;;;;;;7371100;19;20023;-72
2023/08/25 05:44:04;;;;;;;22.77;14.73;;;;;;;;;;7370505;19;19992;-72
2023/08/25 05:46:31;;;;;;;19.98;14.73;;;;;;;;;;7393653;19;20008;-72
2023/08/25 05:48:57;;;;;;;22.13;15.45;;;;;;;;;;7374086;19;20007;-72
2023/08/25 05:51:23;;;;;;;20.60;15.45;;;;;;;;;;7371667;19;20003;-71
2023/08/25 05:53:49;;;;;;;21.60;15.68;;;;;;;;;;7370210;19;20085;-71
2023/08/25 05:56:14;;;;;;;22.00;15.23;;;;;;;;;;7371637;19;20010;-72
2023/08/25 05:58:41;;;;;;;16.90;12.20;;;;;;;;;;7394077;19;20002;-72
2023/08/25 06:01:06;;;;;;;18.52;10.95;;;;;;;;;;7372321;19;20009;-71
2023/08/25 06:03:32;;;;;;;15.95;9.20;;;;;;;;;;7371649;19;20074;-72
2023/08/25 06:05:57;;;;;;;12.73;8.45;;;;;;;;;;7370339;19;20505;-72
2023/08/25 06:08:22;;;;;;;13.23;8.25;;;;;;;;;;7372792;19;20006;-73
2023/08/25 06:10:51;;;;;;;13.63;9.15;;;;;;;;;;7372424;19;20058;-72
2023/08/25 06:13:17;;;;;;;13.48;8.40;;;;;;;;;;7393576;19;20050;-74
2023/08/25 06:15:42;;;;;;;13.07;8.32;;;;;;;;;;7371224;19;20006;-71
2023/08/25 06:18:08;;;;;;;15.00;10.02;;;;;;;;;;7372806;19;20025;-71
2023/08/25 06:20:33;;;;;;;14.50;9.23;;;;;;;;;;7372065;19;20093;-71
2023/08/25 06:22:58;;;;;;;14.80;9.45;;;;;;;;;;7371445;19;20528;-72
2023/08/25 06:25:24;;;;;;;12.93;9.07;;;;;;;;;;7389859;19;20023;-72
2023/08/25 06:27:49;;;;;;;15.20;8.55;;;;;;;;;;7370479;19;20099;-73
2023/08/25 06:30:18;;;;;;;12.50;8.77;;;;;;;;;;7372194;19;20006;-73
2023/08/25 06:32:44;;;;;;;14.60;8.73;;;;;;;;;;7370159;19;20002;-72
2023/08/25 06:35:12;;;;;;;14.68;9.13;;;;;;;;;;7367806;19;20045;-72
2023/08/25 06:37:38;;;;;;;15.77;9.45;;;;;;;;;;7392243;19;20018;-73
2023/08/25 06:40:05;;;;;;;10.93;8.10;;;;;;;;;;7370663;19;20579;-72
2023/08/25 06:42:31;;;;;;;12.68;9.13;;;;;;;;;;7369936;19;20183;-72
2023/08/25 06:44:56;;;;;;;12.75;8.77;;;;;;;;;;7368286;19;20468;-72
2023/08/25 06:47:22;;;;;;;14.63;8.93;;;;;;;;;;7371200;19;20085;-71
2023/08/25 06:49:47;;;;;;;12.98;8.48;;;;;;;;;;7368985;19;20092;-71
2023/08/25 06:52:12;;;;;;;11.50;7.68;;;;;;;;;;7391706;19;20002;-73
2023/08/25 06:54:38;;;;;;;10.52;7.57;;;;;;;;;;7367837;19;20006;-71
2023/08/25 06:57:03;;;;;;;11.52;8.02;;;;;;;;;;7370850;19;20014;-71
2023/08/25 06:59:28;;;;;;;10.95;6.75;;;;;;;;;;7370251;19;20014;-72
2023/08/25 07:01:53;;;;;;;11.10;6.85;;;;;;;;;;7369466;19;20492;-72
2023/08/25 07:04:19;;;;;;;11.77;7.82;;;;;;;;;;7390637;19;20002;-73
2023/08/25 07:06:45;;;;;;;11.73;7.78;;;;;;;;;;7371511;19;20042;-71
2023/08/25 07:09:11;;;;;;;10.98;8.00;;;;;;;;;;7370763;19;20111;-71
2023/08/25 07:11:36;;;;;;;12.63;8.00;;;;;;;;;;7370601;19;20085;-71
2023/08/25 07:14:01;;;;;;;10.55;7.50;;;;;;;;;;7372011;19;20041;-72
2023/08/25 07:16:27;;;;;;;11.98;8.55;;;;;;;;;;7397377;19;20373;-72
2023/08/25 07:18:52;;;;;;;13.00;7.75;;;;;;;;;;7369212;19;20023;-72
2023/08/25 07:21:17;;;;;;;11.60;7.13;;;;;;;;;;7369498;19;20019;-71
2023/08/25 07:23:43;;;;;;;12.20;7.07;;;;;;;;;;7368994;19;20006;-72
2023/08/25 07:26:08;;;;;;;10.73;6.82;;;;;;;;;;7367358;19;20508;-73
2023/08/25 07:28:34;;;;;;;8.25;5.85;;;;;;;;;;7390928;19;20023;-71
2023/08/25 07:30:59;;;;;;;9.93;6.53;;;;;;;;;;7367850;19;20029;-72
2023/08/25 07:33:25;;;;;;;10.20;6.65;;;;;;;;;;7369359;19;20023;-72
2023/08/25 07:35:51;;;;;;;9.52;5.93;;;;;;;;;;7368593;19;20010;-71
2023/08/25 07:38:16;;;;;;;9.13;5.80;;;;;;;;;;7370077;19;20013;-72
2023/08/25 07:40:42;;;;;;;8.85;5.63;;;;;;;;;;7392022;19;20006;-72
2023/08/25 07:43:07;;;;;;;8.73;5.30;;;;;;;;;;7369630;19;20359;-72
2023/08/25 07:45:33;;;;;;;8.85;5.28;;;;;;;;;;7366931;19;20481;-72
2023/08/25 07:48:00;;;;;;;7.25;4.70;;;;;;;;;;7370750;19;20022;-72
2023/08/25 07:50:27;;;;;;;7.80;4.40;;;;;;;;;;7380995;19;20006;-71
2023/08/25 07:52:52;;;;;;;7.72;4.80;;;;;;;;;;7397404;19;20002;-72
2023/08/25 07:55:18;;;;;;;6.65;4.43;;;;;;;;;;7409449;19;20018;-70
2023/08/25 07:57:43;;;;;;;8.25;4.30;;;;;;;;;;7371751;19;20006;-73
2023/08/25 08:00:14;;;;;;;7.85;5.07;;;;;;;;;;7368882;19;20014;-73
2023/08/25 08:02:40;;;;;;;9.77;5.10;;;;;;;;;;7368059;19;20006;-72
2023/08/25 08:05:06;;;;;;;7.03;4.57;;;;;;;;;;7366189;19;20029;-72
2023/08/25 08:07:31;;;;;;;8.52;4.65;;;;;;;;;;7389826;19;20006;-71
2023/08/25 08:09:57;;;;;;;9.20;4.60;;;;;;;;;;7367289;19;20023;-72
2023/08/25 08:12:22;;;;;;;5.45;3.67;;;;;;;;;;7368440;19;20038;-72
2023/08/25 08:14:48;;;;;;;6.78;3.88;;;;;;;;;;7366403;19;20035;-72
2023/08/25 08:17:13;;;;;;;4.63;3.38;;;;;;;;;;7367244;19;20010;-72
2023/08/25 08:19:39;;;;;;;5.45;3.67;;;;;;;;;;7390009;19;20387;-72
2023/08/25 08:22:04;;;;;;;5.50;3.67;;;;;;;;;;7367820;19;20030;-72
2023/08/25 08:24:29;;;;;;;4.78;3.17;;;;;;;;;;7365182;19;20017;-72
2023/08/25 08:26:56;;;;;;;5.10;3.00;;;;;;;;;;7368661;19;20391;-72
2023/08/25 08:29:22;;;;;;;4.82;2.72;;;;;;;;;;7367691;19;20492;-72
2023/08/25 08:31:47;;;;;;;4.32;2.58;;;;;;;;;;7367789;19;20010;-72
2023/08/25 08:34:13;;;;;;;3.28;2.28;;;;;;;;;;7386886;19;20014;-73
2023/08/25 08:36:38;;;;;;;3.67;2.33;;;;;;;;;;7367375;19;21549;-71
2023/08/25 08:39:04;;;;;;;3.28;2.28;;;;;;;;;;7368157;19;20010;-72
2023/08/25 08:41:29;;;;;;;4.30;2.25;;;;;;;;;;7367907;19;20014;-72
2023/08/25 08:43:59;;;;;;;4.13;2.20;;;;;;;;;;7370039;19;20446;-71
2023/08/25 08:46:27;;;;;;;3.77;2.07;;;;;;;;;;7386730;19;20007;-71
2023/08/25 08:48:53;;;;;;;3.75;2.05;;;;;;;;;;7367058;19;20006;-70
2023/08/25 08:51:19;;;;;;;4.03;2.10;;;;;;;;;;7367354;19;20483;-71
2023/08/25 08:53:45;;;;;;;2.47;1.80;;;;;;;;;;7365925;19;20011;-71
2023/08/25 08:56:12;;;;;;;4.78;1.95;;;;;;;;;;7366679;19;20010;-72
2023/08/25 08:58:37;;;;;;;3.20;2.20;;;;;;;;;;7388590;19;20014;-72
2023/08/25 09:01:03;;;;;;;4.15;1.80;;;;;;;;;;7366142;19;20010;-73
2023/08/25 09:03:33;;;;;;;2.97;2.00;;;;;;;;;;7366548;19;20432;-71
2023/08/25 09:06:03;;;;;;;3.78;2.00;;;;;;;;;;7365551;19;20063;-71
2023/08/25 09:08:30;;;;;;;3.58;1.85;;;;;;;;;;7366992;19;20017;-71
2023/08/25 09:10:59;;;;;;;4.53;1.90;;;;;;;;;;7366021;19;20476;-72
2023/08/25 09:13:24;;;;;;;4.72;1.80;;;;;;;;;;7392756;19;20467;-71
2023/08/25 09:15:53;;;;;;;3.45;2.15;;;;;;;;;;7372012;19;20011;-72
2023/08/25 09:18:18;;;;;;;2.75;1.67;;;;;;;;;;7373728;19;20018;-72
2023/08/25 09:20:44;;;;;;;1.92;1.60;;;;;;;;;;7374091;19;20030;-73
2023/08/25 09:23:09;;;;;;;3.22;1.88;;;;;;;;;;7374238;19;20098;-73
2023/08/25 09:25:34;;;;;;;3.10;1.80;;;;;;;;;;7391528;19;20014;-72
2023/08/25 09:28:02;;;;;;;2.75;1.70;;;;;;;;;;7373764;19;20045;-72
2023/08/25 09:30:40;;;;;;;3.65;1.70;;;;;;;;;;7374676;19;20078;-72
2023/08/25 09:33:08;;;;;;;1.50;1.38;;;;;;;;;;7373358;19;20010;-72
2023/08/25 09:35:34;;;;;;;3.50;1.80;;;;;;;;;;7370083;19;20062;-72
2023/08/25 09:37:59;;;;;;;4.72;2.03;;;;;;;;;;7373485;19;20002;-72
2023/08/25 09:40:26;;;;;;;2.65;1.70;;;;;;;;;;7394668;19;20016;-72
2023/08/25 09:43:03;;;;;;;3.55;1.73;;;;;;;;;;7372688;19;20002;-72
2023/08/25 09:45:29;;;;;;;3.65;2.10;;;;;;;;;;7369410;19;20006;-72
2023/08/25 09:48:06;;;;;;;2.42;1.70;;;;;;;;;;7371258;19;20010;-72
2023/08/25 09:50:38;;;;;;;2.47;1.90;;;;;;;;;;7373357;19;20023;-71
2023/08/25 09:53:05;;;;;;;2.50;1.55;;;;;;;;;;7372521;19;20453;-72
2023/08/25 09:55:32;;;;;;;2.55;1.85;;;;;;;;;;7390405;19;20007;-72
2023/08/25 09:57:58;;;;;;;2.47;1.70;;;;;;;;;;7371541;19;20077;-72
2023/08/25 10:00:23;;;;;;;3.38;2.00;;;;;;;;;;7372168;19;20583;-72
2023/08/25 10:02:50;;;;;;;2.95;1.77;;;;;;;;;;7370441;19;20006;-72
2023/08/25 10:05:17;;;;;;;2.75;1.70;;;;;;;;;;7369273;19;20080;-72
2023/08/25 10:07:43;;;;;;;2.10;1.60;;;;;;;;;;7394818;19;20003;-72
2023/08/25 10:10:09;;;;;;;2.70;1.83;;;;;;;;;;7376218;19;20349;-72
2023/08/25 10:12:37;;;;;;;2.30;1.65;;;;;;;;;;7380120;19;20011;-72
2023/08/25 10:15:05;;;;;;;4.57;1.67;;;;;;;;;;7370944;19;20504;-73
2023/08/25 10:17:32;;;;;;;2.38;1.77;;;;;;;;;;7372378;19;20010;-72
2023/08/25 10:20:01;;;;;;;2.55;1.67;;;;;;;;;;7370292;19;19999;-72
2023/08/25 10:22:27;;;;;;;2.17;1.60;;;;;;;;;;7393604;19;20007;-72
2023/08/25 10:25:00;;;;;;;1.63;1.40;;;;;;;;;;7368945;19;20010;-72
2023/08/25 10:27:27;;;;;;;1.60;1.48;;;;;;;;;;7371421;19;20368;-72
2023/08/25 10:29:53;;;;;;;2.25;1.45;;;;;;;;;;7372260;19;20013;-72
2023/08/25 10:32:18;;;;;;;2.63;1.73;;;;;;;;;;7371282;19;20381;-72
2023/08/25 10:34:46;;;;;;;2.40;1.60;;;;;;;;;;7389376;19;19995;-72
2023/08/25 10:37:12;;;;;;;3.15;1.83;;;;;;;;;;7392316;19;20475;-73
2023/08/25 10:39:52;;;;;;;3.20;1.70;;;;;;;;;;7368863;19;20362;-72
2023/08/25 10:42:26;;;;;;;2.72;1.80;;;;;;;;;;7368471;19;20440;-71
2023/08/25 10:45:06;;;;;;;2.28;1.60;;;;;;;;;;7366460;19;20010;-71
2023/08/25 10:47:32;;;;;;;2.45;1.83;;;;;;;;;;7369086;19;20010;-71
2023/08/25 10:50:03;;;;;;;2.72;1.55;;;;;;;;;;7369379;19;19998;-71
2023/08/25 10:52:29;;;;;;;2.08;1.50;;;;;;;;;;7392020;19;20002;-72
2023/08/25 10:54:54;;;;;;;2.28;1.67;;;;;;;;;;7365294;19;20006;-72
2023/08/25 10:57:26;;;;;;;3.08;2.20;;;;;;;;;;7368145;19;20011;-71
2023/08/25 10:59:56;;;;;;;1.55;1.45;;;;;;;;;;7369314;19;20360;-71
2023/08/25 11:02:48;;;;;;;1.80;1.60;;;;;;;;;;7367670;19;20108;-71
2023/08/25 11:05:34;;;;;;;2.95;1.48;;;;;;;;;;7365947;19;20003;-71
2023/08/25 11:08:04;;;;;;;1.40;1.30;;;;;;;;;;7367584;19;20003;-71
2023/08/25 11:10:34;;;;;;;1.40;1.30;;;;;;;;;;7390966;19;20011;-72
2023/08/25 11:13:00;;;;;;;2.78;1.60;;;;;;;;;;7369352;19;20017;-71
2023/08/25 11:15:26;;;;;;;1.92;1.50;;;;;;;;;;7369629;19;20022;-71
2023/08/25 11:17:52;;;;;;;2.00;1.58;;;;;;;;;;7369097;19;20082;-71
2023/08/25 11:20:18;;;;;;;1.63;1.50;;;;;;;;;;7371230;19;20039;-71
2023/08/25 11:22:55;;;;;;;3.20;1.70;;;;;;;;;;7388978;19;20653;-71
2023/08/25 11:25:21;;;;;;;2.60;1.75;;;;;;;;;;7386700;19;20002;-71
2023/08/25 11:27:53;;;;;;;7.20;4.20;;;;;;;;;;7367615;19;20021;-71
2023/08/25 11:30:19;;;;;;;4.63;2.80;;;;;;;;;;7366756;19;20011;-71
2023/08/25 11:32:47;;;;;;;2.50;1.75;;;;;;;;;;7366224;19;20002;-72
2023/08/25 11:35:12;;;;;;;1.67;1.52;;;;;;;;;;7363078;19;20010;-71
2023/08/25 11:37:39;;;;;;;4.10;1.80;;;;;;;;;;7388902;19;20634;-72
2023/08/25 11:40:09;;;;;;;1.77;1.33;;;;;;;;;;7375098;19;20642;-73
2023/08/25 11:42:35;;;;;;;2.23;1.63;;;;;;;;;;7367733;19;20002;-71
2023/08/25 11:45:09;;;;;;;3.60;2.20;;;;;;;;;;7367236;19;20297;-71
2023/08/25 11:47:34;;;;;;;1.80;1.60;;;;;;;;;;7367787;19;20009;-72
2023/08/25 11:50:00;;;;;;;3.85;1.77;;;;;;;;;;7368362;19;19994;-72
2023/08/25 11:52:26;;;;;;;2.70;1.58;;;;;;;;;;7389831;19;20518;-71
2023/08/25 11:54:51;;;;;;;3.33;1.80;;;;;;;;;;7363926;19;20035;-70
2023/08/25 11:57:18;;;;;;;2.22;1.70;;;;;;;;;;7367564;19;20002;-71
2023/08/25 11:59:47;;;;;;;2.63;1.50;;;;;;;;;;7368736;19;20007;-72
2023/08/25 12:02:17;;;;;;;2.95;1.63;;;;;;;;;;7371954;19;20010;-70
2023/08/25 12:04:54;;;;;;;1.77;1.40;;;;;;;;;;7398893;19;20009;-72
2023/08/25 12:07:23;;;;;;;5.07;2.40;;;;;;;;;;7373862;19;20025;-71
2023/08/25 12:09:54;;;;;;;2.70;1.88;;;;;;;;;;7372658;19;20337;-71
2023/08/25 12:12:20;;;;;;;2.53;1.50;;;;;;;;;;7366741;19;20027;-71
2023/08/25 12:14:45;;;;;;;2.78;1.80;;;;;;;;;;7365664;19;20011;-72
2023/08/25 12:17:29;;;;;;;2.10;1.63;;;;;;;;;;7367525;19;20014;-73
2023/08/25 12:19:56;;;;;;;2.67;1.70;;;;;;;;;;7367058;19;20002;-72
2023/08/25 12:22:22;;;;;;;3.85;1.70;;;;;;;;;;7388101;19;20070;-72
2023/08/25 12:24:48;;;;;;;3.50;1.88;;;;;;;;;;7363359;19;20021;-72
2023/08/25 12:27:13;;;;;;;3.33;1.90;;;;;;;;;;7366043;19;20010;-72
2023/08/25 12:29:39;;;;;;;3.20;1.80;;;;;;;;;;7366434;19;20018;-72
2023/08/25 12:32:07;;;;;;;2.22;1.77;;;;;;;;;;7367023;19;20007;-72
2023/08/25 12:34:32;;;;;;;2.90;2.00;;;;;;;;;;7386363;19;20026;-71
2023/08/25 12:36:58;;;;;;;2.63;1.88;;;;;;;;;;7366921;19;20575;-71
2023/08/25 12:39:24;;;;;;;4.00;2.00;;;;;;;;;;7367332;19;20028;-72
2023/08/25 12:41:50;;;;;;;3.08;1.88;;;;;;;;;;7366486;19;20031;-71
2023/08/25 12:44:15;;;;;;;3.80;1.92;;;;;;;;;;7365122;19;20464;-72
2023/08/25 12:46:42;;;;;;;3.13;1.92;;;;;;;;;;7386825;19;19994;-72
2023/08/25 12:49:07;;;;;;;3.28;2.05;;;;;;;;;;7373056;19;20011;-72
2023/08/25 12:51:34;;;;;;;2.08;1.70;;;;;;;;;;7373233;19;20013;-72
2023/08/25 12:54:00;;;;;;;2.40;1.80;;;;;;;;;;7372034;19;20010;-72
2023/08/25 12:56:25;;;;;;;2.67;1.90;;;;;;;;;;7371371;19;20485;-72
2023/08/25 12:58:53;;;;;;;3.15;1.98;;;;;;;;;;7372259;19;20070;-72
2023/08/25 13:01:19;;;;;;;7.10;2.17;;;;;;;;;;7393754;19;20018;-72
2023/08/25 13:03:44;;;;;;;2.97;1.85;;;;;;;;;;7371961;19;20039;-73
2023/08/25 13:06:09;;;;;;;4.40;2.10;;;;;;;;;;7371981;19;20524;-72
2023/08/25 13:08:35;;;;;;;4.25;2.08;;;;;;;;;;7378579;19;20021;-72
2023/08/25 13:11:00;;;;;;;2.90;1.88;;;;;;;;;;7374379;19;20007;-72
2023/08/25 13:13:26;;;;;;;2.60;1.85;;;;;;;;;;7394683;19;20479;-71
2023/08/25 13:15:51;;;;;;;4.13;2.08;;;;;;;;;;7370788;19;20002;-71
2023/08/25 13:18:17;;;;;;;3.88;2.10;;;;;;;;;;7372163;19;20098;-70
2023/08/25 13:20:42;;;;;;;4.05;2.20;;;;;;;;;;7372324;19;20010;-71
2023/08/25 13:23:07;;;;;;;4.22;2.10;;;;;;;;;;7372144;19;20015;-71
2023/08/25 13:25:33;;;;;;;2.28;1.70;;;;;;;;;;7390630;19;20007;-71
2023/08/25 13:27:58;;;;;;;2.13;1.70;;;;;;;;;;7371057;19;20046;-71
2023/08/25 13:30:23;;;;;;;3.25;2.20;;;;;;;;;;7371635;19;20007;-71
2023/08/25 13:32:49;;;;;;;3.08;1.85;;;;;;;;;;7371987;19;20366;-71
2023/08/25 13:35:15;;;;;;;4.40;2.10;;;;;;;;;;7369144;19;20762;-72
2023/08/25 13:37:40;;;;;;;2.25;2.00;;;;;;;;;;7393882;19;19998;-72
2023/08/25 13:40:07;;;;;;;4.60;2.50;;;;;;;;;;7371691;19;20006;-71
2023/08/25 13:42:32;;;;;;;5.40;2.22;;;;;;;;;;7371142;19;20834;-72
2023/08/25 13:44:58;;;;;;;3.88;2.03;;;;;;;;;;7368528;19;20006;-71
2023/08/25 13:47:24;;;;;;;3.15;2.13;;;;;;;;;;7371547;19;20017;-71
2023/08/25 13:49:49;;;;;;;3.95;2.00;;;;;;;;;;7371582;19;20094;-71
2023/08/25 13:52:15;;;;;;;3.55;2.20;;;;;;;;;;7391406;19;20078;-72
2023/08/25 13:54:41;;;;;;;3.80;2.22;;;;;;;;;;7367606;19;20006;-72
2023/08/25 13:57:06;;;;;;;4.45;2.10;;;;;;;;;;7371530;19;20042;-71
2023/08/25 13:59:32;;;;;;;3.38;2.20;;;;;;;;;;7370183;19;19999;-72
2023/08/25 14:01:57;;;;;;;3.75;2.38;;;;;;;;;;7369993;19;20010;-71
2023/08/25 14:04:22;;;;;;;2.80;1.75;;;;;;;;;;7390572;19;19998;-70
2023/08/25 14:06:48;;;;;;;3.40;2.13;;;;;;;;;;7369062;19;20663;-71
2023/08/25 14:09:13;;;;;;;3.22;2.05;;;;;;;;;;7369158;19;20449;-71
2023/08/25 14:11:38;;;;;;;3.55;2.20;;;;;;;;;;7370850;19;20011;-71
2023/08/25 14:14:04;;;;;;;3.93;2.17;;;;;;;;;;7370092;19;20043;-71
2023/08/25 14:16:29;;;;;;;5.65;2.45;;;;;;;;;;7391040;19;20594;-71
2023/08/25 14:18:55;;;;;;;3.50;1.98;;;;;;;;;;7369760;19;20051;-71
2023/08/25 14:21:21;;;;;;;3.85;2.30;;;;;;;;;;7368953;19;20013;-71
2023/08/25 14:23:47;;;;;;;3.83;2.03;;;;;;;;;;7369098;19;20081;-71
2023/08/25 14:26:12;;;;;;;4.72;2.45;;;;;;;;;;7367321;19;20066;-72
2023/08/25 14:28:37;;;;;;;3.95;2.33;;;;;;;;;;7391679;19;20010;-70